Time;durP1;ratioP1;P1;durP2;ratioP2;P2;SDS_P1;SDS_P2;PMS_P1;PMS_P2;Temp;Humidity;BMP_temperature;BMP_pressure;BME280_temperature;BME280_humidity;BME280_pressure;Samples;Min_cycle;Max_cycle;Signal;HPM_P1;HPM_P2
2021/08/02 00:00:17;;;;;;;0.10;0.10;;;;;;;29.42;38.96;98429.81;5030549;28;20096;-84
2021/08/02 00:02:54;;;;;;;0.00;0.00;;;;;;;29.39;39.05;98437.75;5029668;28;20026;-86
2021/08/02 00:05:21;;;;;;;0.00;0.00;;;;;;;29.37;38.83;98433.84;5031180;28;20095;-83
2021/08/02 00:07:51;;;;;;;;;;;;;;;29.36;38.73;98432.31;5031557;28;20028;-84
2021/08/02 00:10:17;;;;;;;0.00;0.00;;;;;;;29.32;38.92;98432.34;5031276;28;20439;-82
2021/08/02 00:12:55;;;;;;;0.00;0.00;;;;;;;29.32;38.74;98434.31;5031054;28;20041;-80
2021/08/02 00:15:21;;;;;;;0.10;0.10;;;;;;;29.28;38.79;98428.84;5032400;28;20472;-83
2021/08/02 00:17:48;;;;;;;0.00;0.00;;;;;;;29.24;38.97;98428.13;5030569;28;20622;-86
2021/08/02 00:20:28;;;;;;;0.00;0.00;;;;;;;29.22;39.16;98417.53;5030405;28;20040;-78
2021/08/02 00:22:55;;;;;;;0.00;0.00;;;;;;;29.17;39.06;98429.00;5030647;28;20021;-82
2021/08/02 00:25:24;;;;;;;0.08;0.08;;;;;;;29.15;39.22;98428.66;5063737;28;20081;-81
2021/08/02 00:27:52;;;;;;;0.00;0.00;;;;;;;29.11;39.30;98436.19;5024546;28;20033;-86
2021/08/02 00:30:18;;;;;;;0.00;0.00;;;;;;;29.08;39.52;98435.03;5021584;28;20507;-85
2021/08/02 00:32:43;;;;;;;0.00;0.00;;;;;;;29.07;39.64;98438.22;5027428;28;20022;-81
2021/08/02 00:35:09;;;;;;;0.00;0.00;;;;;;;29.00;39.78;98436.38;5027191;28;20037;-83
2021/08/02 00:37:46;;;;;;;0.00;0.00;;;;;;;28.97;40.10;98433.66;5030860;28;20025;-80
2021/08/02 00:40:44;;;;;;;0.10;0.10;;;;;;;28.88;40.29;98431.41;5027547;28;20060;-81
2021/08/02 00:43:28;;;;;;;0.00;0.00;;;;;;;28.83;40.59;98432.66;5011486;28;20205;-83
2021/08/02 00:45:55;;;;;;;0.00;0.00;;;;;;;28.74;40.71;98427.66;5029492;28;20037;-85
2021/08/02 00:48:27;;;;;;;0.75;0.22;;;;;;;28.70;40.58;98435.19;5026722;28;20087;-83
2021/08/02 00:50:53;;;;;;;0.00;0.00;;;;;;;28.65;40.85;98426.59;5064031;28;20075;-88
2021/08/02 00:53:21;;;;;;;0.00;0.00;;;;;;;28.64;40.76;98430.53;5028133;28;20390;-87
2021/08/02 00:55:52;;;;;;;0.00;0.00;;;;;;;28.64;40.91;98433.28;5011180;28;20030;-89
2021/08/02 00:58:21;;;;;;;0.10;0.10;;;;;;;28.63;41.10;98440.75;5022702;28;20029;-87
2021/08/02 01:00:47;;;;;;;0.00;0.00;;;;;;;28.60;41.12;98436.88;5029879;28;20485;-83
2021/08/02 01:03:14;;;;;;;0.00;0.00;;;;;;;28.61;41.31;98429.38;5028101;28;20071;-85
2021/08/02 01:05:41;;;;;;;0.00;0.00;;;;;;;28.61;41.33;98434.88;5026573;28;20471;-83
2021/08/02 01:08:17;;;;;;;0.00;0.00;;;;;;;28.59;41.25;98440.81;5030246;28;20107;-85
2021/08/02 01:10:45;;;;;;;0.00;0.00;;;;;;;28.59;41.37;98443.56;5030285;28;20028;-81
2021/08/02 01:13:13;;;;;;;0.00;0.00;;;;;;;28.58;41.62;98439.25;5020265;28;20554;-84
2021/08/02 01:15:40;;;;;;;0.00;0.00;;;;;;;28.58;41.86;98439.25;5012876;28;20116;-84
2021/08/02 01:18:06;;;;;;;0.00;0.00;;;;;;;28.56;41.76;98444.41;5024585;28;20069;-86
2021/08/02 01:20:33;;;;;;;0.00;0.00;;;;;;;28.55;41.70;98436.53;5029402;28;20516;-84
2021/08/02 01:23:05;;;;;;;0.00;0.00;;;;;;;28.47;41.99;98435.09;5010349;28;20096;-82
2021/08/02 01:25:33;;;;;;;0.00;0.00;;;;;;;28.49;41.61;98443.69;5027512;28;20056;-82
2021/08/02 01:28:14;;;;;;;0.00;0.00;;;;;;;28.47;41.82;98446.84;5024648;28;20025;-82
2021/08/02 01:30:50;;;;;;;0.00;0.00;;;;;;;28.41;41.70;98454.78;5010617;28;20030;-82
2021/08/02 01:33:28;;;;;;;0.00;0.00;;;;;;;28.37;41.99;98445.00;5019100;28;20029;-83
2021/08/02 01:36:06;;;;;;;0.00;0.00;;;;;;;28.32;42.13;98446.25;5010473;28;20040;-81
2021/08/02 01:38:32;;;;;;;0.00;0.00;;;;;;;28.25;42.46;98449.09;5010739;28;20413;-82
2021/08/02 01:40:59;;;;;;;0.00;0.00;;;;;;;28.25;42.36;98449.84;5018822;28;20065;-82
2021/08/02 01:43:25;;;;;;;0.00;0.00;;;;;;;28.20;42.62;98447.56;5014135;28;20029;-82
2021/08/02 01:46:06;;;;;;;0.00;0.00;;;;;;;28.17;42.57;98447.59;5023915;28;20024;-81
2021/08/02 01:48:50;;;;;;;0.05;0.05;;;;;;;28.11;42.78;98450.81;5033325;28;20128;-81
2021/08/02 01:51:27;;;;;;;0.00;0.00;;;;;;;28.04;42.81;98453.59;5033979;28;20421;-80
2021/08/02 01:54:31;;;;;;;0.00;0.00;;;;;;;27.98;43.10;98455.22;5029556;28;20041;-81
2021/08/02 01:57:11;;;;;;;0.00;0.00;;;;;;;27.94;42.82;98444.28;5010346;28;20072;-80
2021/08/02 01:59:47;;;;;;;0.00;0.00;;;;;;;27.93;43.06;98445.47;5020120;28;20485;-87
2021/08/02 02:02:15;;;;;;;0.00;0.00;;;;;;;27.92;43.10;98443.13;5025857;28;20509;-86
2021/08/02 02:05:06;;;;;;;0.00;0.00;;;;;;;27.90;43.21;98443.50;5021959;28;20497;-86
2021/08/02 02:07:41;;;;;;;0.00;0.00;;;;;;;27.87;43.48;98435.31;5018572;28;20034;-81
2021/08/02 02:10:08;;;;;;;0.00;0.00;;;;;;;27.84;43.63;98445.16;5013987;28;20038;-84
2021/08/02 02:12:33;;;;;;;0.00;0.00;;;;;;;27.81;43.68;98448.72;5022811;28;20037;-82
2021/08/02 02:15:01;;;;;;;0.00;0.00;;;;;;;27.78;43.81;98457.78;5013874;28;20025;-80
2021/08/02 02:17:26;;;;;;;0.60;0.30;;;;;;;27.74;43.70;98466.03;5018564;28;20041;-81
2021/08/02 02:19:54;;;;;;;0.00;0.00;;;;;;;27.71;43.58;98474.31;5027390;28;20034;-80
2021/08/02 02:22:24;;;;;;;0.00;0.00;;;;;;;27.64;43.75;98475.94;5021622;28;20026;-82
2021/08/02 02:24:51;;;;;;;0.00;0.00;;;;;;;27.57;43.92;98480.72;5015938;28;20048;-85
2021/08/02 02:27:18;;;;;;;0.00;0.00;;;;;;;27.49;43.97;98474.50;5022464;28;20033;-83
2021/08/02 02:29:44;;;;;;;0.00;0.00;;;;;;;27.45;44.25;98471.78;5025359;28;20041;-82
2021/08/02 02:32:10;;;;;;;0.00;0.00;;;;;;;27.39;44.27;98478.06;5033256;28;20048;-81
2021/08/02 02:34:38;;;;;;;0.00;0.00;;;;;;;27.33;44.56;98484.00;5032679;28;20041;-78
2021/08/02 02:37:06;;;;;;;0.00;0.00;;;;;;;27.25;44.96;98484.47;5026894;28;20124;-81
2021/08/02 02:39:33;;;;;;;0.00;0.00;;;;;;;27.17;44.88;98491.94;5033270;28;20260;-85
2021/08/02 02:42:00;;;;;;;0.20;0.20;;;;;;;27.14;45.42;98490.78;5032560;28;20107;-86
2021/08/02 02:44:26;;;;;;;0.00;0.00;;;;;;;27.08;45.50;98495.13;5033067;28;20030;-87
2021/08/02 02:46:52;;;;;;;0.10;0.10;;;;;;;27.05;45.47;98492.41;5031645;28;20799;-87
2021/08/02 02:49:19;;;;;;;0.00;0.00;;;;;;;27.00;45.68;98501.84;5024726;28;20036;-85
2021/08/02 02:51:44;;;;;;;0.00;0.00;;;;;;;26.95;45.72;98496.78;5032689;28;20130;-85
2021/08/02 02:54:10;;;;;;;0.00;0.00;;;;;;;26.94;45.77;98503.44;5017820;28;20485;-83
2021/08/02 02:56:36;;;;;;;0.00;0.00;;;;;;;26.92;45.79;98497.59;5020511;28;20115;-84
2021/08/02 02:59:03;;;;;;;0.00;0.00;;;;;;;26.89;45.92;98499.19;5014757;28;20030;-83
2021/08/02 03:01:37;;;;;;;0.00;0.00;;;;;;;26.87;46.21;98498.00;5018433;28;20036;-83
2021/08/02 03:04:05;;;;;;;0.00;0.00;;;;;;;26.86;46.59;98493.72;5021644;28;20048;-84
2021/08/02 03:06:32;;;;;;;0.00;0.00;;;;;;;26.84;46.61;98494.09;5032266;28;20040;-82
2021/08/02 03:08:58;;;;;;;0.10;0.10;;;;;;;26.79;46.66;98500.78;5017566;28;20053;-86
2021/08/02 03:11:24;;;;;;;0.00;0.00;;;;;;;26.73;47.03;98501.56;5024039;28;20038;-84
2021/08/02 03:13:50;;;;;;;0.05;0.05;;;;;;;26.73;47.23;98507.03;5031345;28;20091;-82
2021/08/02 03:16:17;;;;;;;0.10;0.10;;;;;;;26.67;47.37;98501.19;5031279;28;20493;-83
2021/08/02 03:18:42;;;;;;;0.10;0.10;;;;;;;26.64;47.06;98519.22;5024816;28;20056;-84
2021/08/02 03:21:08;;;;;;;0.00;0.00;;;;;;;26.59;47.64;98513.38;5031415;28;20124;-82
2021/08/02 03:23:52;;;;;;;0.00;0.00;;;;;;;26.55;47.88;98520.81;5032224;28;20401;-81
2021/08/02 03:26:30;;;;;;;0.32;0.32;;;;;;;26.55;47.96;98515.34;5022794;28;20041;-81
2021/08/02 03:29:00;;;;;;;0.00;0.00;;;;;;;26.52;47.99;98516.91;5030498;28;20506;-81
2021/08/02 03:31:42;;;;;;;0.20;0.20;;;;;;;26.51;47.98;98516.16;5031484;28;20120;-80
2021/08/02 03:34:12;;;;;;;0.08;0.08;;;;;;;26.57;47.83;98512.97;5031726;28;20025;-82
2021/08/02 03:36:38;;;;;;;0.00;0.00;;;;;;;26.63;48.08;98514.13;5027800;28;20033;-81
2021/08/02 03:39:04;;;;;;;0.05;0.05;;;;;;;26.71;47.98;98510.19;5015293;28;20500;-82
2021/08/02 03:41:30;;;;;;;0.00;0.00;;;;;;;26.78;47.62;98517.63;5028701;28;20044;-80
2021/08/02 03:43:59;;;;;;;0.13;0.13;;;;;;;26.88;47.28;98508.59;5021190;28;20025;-82
2021/08/02 03:46:26;;;;;;;0.08;0.08;;;;;;;26.98;47.37;98513.22;5015894;28;20029;-83
2021/08/02 03:48:51;;;;;;;0.00;0.00;;;;;;;27.09;47.06;98512.41;5031888;28;20044;-84
2021/08/02 03:51:17;;;;;;;0.00;0.00;;;;;;;27.17;46.76;98509.22;5022749;28;20026;-82
2021/08/02 03:53:45;;;;;;;0.00;0.00;;;;;;;27.31;46.91;98504.81;5031664;28;20108;-82
2021/08/02 03:56:12;;;;;;;0.00;0.00;;;;;;;27.44;46.67;98505.94;5021575;28;20056;-83
2021/08/02 03:58:38;;;;;;;0.00;0.00;;;;;;;27.57;46.44;98497.97;5023914;28;20025;-81
2021/08/02 04:01:03;;;;;;;0.10;0.10;;;;;;;27.74;45.75;98493.50;5016106;28;20052;-82
2021/08/02 04:03:29;;;;;;;0.10;0.10;;;;;;;27.95;45.40;98491.75;5016050;28;20041;-79
2021/08/02 04:05:57;;;;;;;0.00;0.00;;;;;;;28.19;45.46;98497.47;5030133;28;20563;-79
2021/08/02 04:08:23;;;;;;;0.00;0.00;;;;;;;28.44;44.65;98500.72;5025514;28;20033;-80
2021/08/02 04:10:48;;;;;;;0.00;0.00;;;;;;;28.72;43.98;98498.06;5023691;28;20134;-77
2021/08/02 04:13:17;;;;;;;0.55;0.13;;;;;;;29.01;42.72;98500.44;5030666;28;20113;-78
2021/08/02 04:15:43;;;;;;;0.00;0.00;;;;;;;29.31;42.56;98504.34;5026690;28;20037;-78
2021/08/02 04:18:08;;;;;;;2.22;0.73;;;;;;;29.30;41.73;98506.34;5011948;28;20572;-75
2021/08/02 04:20:34;;;;;;;0.47;0.47;;;;;;;29.31;42.64;98523.63;5015975;28;20478;-81
2021/08/02 04:22:59;;;;;;;1.02;1.02;;;;;;;29.12;42.98;98519.56;5031031;28;20061;-81
2021/08/02 04:25:24;;;;;;;0.38;0.38;;;;;;;29.27;42.01;98512.63;5019653;28;20060;-75
2021/08/02 04:27:51;;;;;;;0.32;0.30;;;;;;;29.48;41.90;98519.84;5026933;28;20021;-82
2021/08/02 04:30:17;;;;;;;0.43;0.43;;;;;;;29.86;41.76;98524.38;5019331;28;20117;-75
2021/08/02 04:32:44;;;;;;;1.55;1.27;;;;;;;30.32;40.85;98521.97;5022708;28;20108;-75
2021/08/02 04:35:10;;;;;;;0.13;0.13;;;;;;;30.83;40.30;98508.00;5012072;28;20042;-76
2021/08/02 04:37:36;;;;;;;0.22;0.22;;;;;;;31.32;39.17;98499.06;5011795;28;20098;-75
2021/08/02 04:40:01;;;;;;;0.20;0.20;;;;;;;31.82;38.04;98502.59;5010834;28;20026;-75
2021/08/02 04:42:26;;;;;;;0.30;0.25;;;;;;;32.38;36.92;98500.78;5010645;28;20030;-75
2021/08/02 04:44:52;;;;;;;0.20;0.20;;;;;;;32.85;35.75;98491.19;5011759;28;20022;-75
2021/08/02 04:47:18;;;;;;;0.10;0.10;;;;;;;33.33;35.22;98500.38;5011732;28;20018;-75
2021/08/02 04:49:43;;;;;;;0.08;0.08;;;;;;;33.79;33.90;98500.09;5011743;28;20080;-76
2021/08/02 04:52:08;;;;;;;0.00;0.00;;;;;;;34.24;33.69;98508.50;5010422;28;20034;-75
2021/08/02 04:54:34;;;;;;;0.10;0.10;;;;;;;34.72;33.06;98511.16;5010556;28;20249;-75
2021/08/02 04:56:59;;;;;;;0.25;0.25;;;;;;;35.11;32.05;98500.56;5011976;28;20033;-75
2021/08/02 04:59:25;;;;;;;0.65;0.65;;;;;;;35.45;31.57;98486.94;5011262;28;20155;-76
2021/08/02 05:01:50;;;;;;;0.10;0.10;;;;;;;35.87;31.34;98501.06;5011959;28;20040;-76
2021/08/02 05:04:15;;;;;;;0.10;0.10;;;;;;;36.20;30.45;98496.94;5011554;28;20029;-77
2021/08/02 05:06:41;;;;;;;0.30;0.30;;;;;;;36.51;29.95;98485.63;5011807;28;20034;-75
2021/08/02 05:09:06;;;;;;;0.10;0.10;;;;;;;36.77;29.34;98492.81;5010442;28;20041;-76
2021/08/02 05:11:32;;;;;;;0.10;0.10;;;;;;;36.97;29.41;98495.09;5011579;28;20028;-76
2021/08/02 05:13:57;;;;;;;0.00;0.00;;;;;;;37.24;29.04;98485.06;5011705;28;20030;-76
2021/08/02 05:16:23;;;;;;;0.10;0.10;;;;;;;37.40;29.04;98497.88;5011156;28;20105;-76
2021/08/02 05:18:49;;;;;;;0.05;0.05;;;;;;;37.61;28.27;98494.03;5009896;28;20416;-76
2021/08/02 05:21:14;;;;;;;0.00;0.00;;;;;;;37.83;28.39;98489.38;5011364;28;20117;-76
2021/08/02 05:23:40;;;;;;;0.00;0.00;;;;;;;38.02;27.72;98490.78;5011688;28;20026;-76
2021/08/02 05:26:05;;;;;;;0.00;0.00;;;;;;;38.21;27.47;98480.22;5010148;28;20133;-76
2021/08/02 05:28:30;;;;;;;0.08;0.08;;;;;;;38.36;26.72;98482.31;5011220;28;20029;-76
2021/08/02 05:30:56;;;;;;;0.10;0.10;;;;;;;38.44;26.38;98473.06;5011270;28;20100;-77
2021/08/02 05:33:21;;;;;;;0.10;0.10;;;;;;;38.55;26.49;98477.28;5009803;28;20026;-75
2021/08/02 05:35:47;;;;;;;0.00;0.00;;;;;;;38.62;26.50;98482.47;5010114;28;20022;-75
2021/08/02 05:38:12;;;;;;;0.10;0.10;;;;;;;38.74;26.72;98483.44;5009922;28;20037;-75
2021/08/02 05:40:37;;;;;;;0.20;0.20;;;;;;;38.79;26.25;98477.19;5010108;28;20026;-75
2021/08/02 05:43:03;;;;;;;0.10;0.10;;;;;;;38.92;26.64;98493.66;5009952;28;20030;-75
2021/08/02 05:45:28;;;;;;;0.20;0.20;;;;;;;39.07;26.38;98493.63;5010997;28;20034;-75
2021/08/02 05:47:54;;;;;;;0.00;0.00;;;;;;;39.25;25.98;98492.63;5011238;28;20030;-75
2021/08/02 05:50:19;;;;;;;0.10;0.10;;;;;;;39.37;26.38;98485.94;5011081;28;20022;-75
2021/08/02 05:52:45;;;;;;;0.10;0.10;;;;;;;39.51;25.71;98489.16;5011175;28;20026;-75
2021/08/02 05:55:13;;;;;;;0.10;0.10;;;;;;;39.71;25.73;98480.00;5011289;28;20358;-75
2021/08/02 05:57:39;;;;;;;0.10;0.10;;;;;;;39.82;25.38;98473.78;5011219;28;20022;-75
2021/08/02 06:00:06;;;;;;;0.10;0.10;;;;;;;39.99;25.26;98485.94;5011378;28;20034;-75
2021/08/02 06:02:32;;;;;;;0.10;0.10;;;;;;;40.16;25.19;98483.34;5011038;28;20548;-75
2021/08/02 06:04:57;;;;;;;0.10;0.10;;;;;;;40.19;25.33;98481.59;5011454;28;20080;-75
2021/08/02 06:07:22;;;;;;;0.07;0.07;;;;;;;40.37;25.13;98471.31;5009541;28;20504;-76
2021/08/02 06:09:49;;;;;;;0.10;0.10;;;;;;;40.45;24.92;98478.00;5010051;28;20127;-76
2021/08/02 06:12:14;;;;;;;;;;;;;;;40.55;24.94;98479.34;5011416;28;20026;-76
2021/08/02 06:14:40;;;;;;;0.10;0.10;;;;;;;40.62;24.07;98480.97;5010966;28;19917;-76
2021/08/02 06:17:05;;;;;;;0.10;0.10;;;;;;;40.65;24.75;98477.94;5011063;28;20057;-76
2021/08/02 06:19:31;;;;;;;0.00;0.00;;;;;;;40.63;24.81;98472.06;5010845;28;20025;-75
2021/08/02 06:21:56;;;;;;;0.10;0.10;;;;;;;40.72;24.95;98487.94;5011019;28;20120;-75
2021/08/02 06:24:22;;;;;;;0.20;0.20;;;;;;;40.75;24.95;98488.97;5010816;28;20060;-75
2021/08/02 06:26:47;;;;;;;0.10;0.10;;;;;;;40.77;24.39;98480.84;5011093;28;20100;-76
2021/08/02 06:29:13;;;;;;;0.47;0.37;;;;;;;40.76;24.56;98487.69;5010615;28;20458;-75
2021/08/02 06:31:38;;;;;;;0.10;0.10;;;;;;;40.75;24.79;98488.97;5015029;28;20030;-75
2021/08/02 06:34:03;;;;;;;0.10;0.10;;;;;;;40.59;24.30;98488.34;5014854;28;20040;-77
2021/08/02 06:36:29;;;;;;;0.10;0.10;;;;;;;40.32;24.66;98481.97;5013138;28;20529;-78
2021/08/02 06:38:54;;;;;;;0.00;0.00;;;;;;;40.05;25.02;98476.84;5014745;28;20040;-78
2021/08/02 06:41:20;;;;;;;0.10;0.10;;;;;;;39.71;25.24;98474.41;5014491;28;20375;-77
2021/08/02 06:43:45;;;;;;;0.10;0.10;;;;;;;39.46;25.44;98476.63;5014803;28;20026;-78
2021/08/02 06:46:10;;;;;;;0.40;0.40;;;;;;;39.22;25.29;98476.81;5014078;28;20057;-76
2021/08/02 06:48:38;;;;;;;0.43;0.40;;;;;;;39.01;25.59;98473.94;5014065;28;20033;-76
2021/08/02 06:51:04;;;;;;;0.20;0.20;;;;;;;38.87;25.89;98475.53;5014849;28;20034;-76
2021/08/02 06:53:29;;;;;;;0.10;0.10;;;;;;;38.65;25.87;98470.34;5012850;28;20149;-77
2021/08/02 06:55:55;;;;;;;0.40;0.40;;;;;;;38.47;26.29;98462.94;5014650;28;20034;-77
2021/08/02 06:58:20;;;;;;;1.08;0.30;;;;;;;38.26;26.42;98460.00;5013001;28;20026;-76
2021/08/02 07:00:46;;;;;;;0.50;0.50;;;;;;;38.19;27.11;98454.03;5014439;28;20026;-77
2021/08/02 07:03:11;;;;;;;0.00;0.00;;;;;;;38.04;26.56;98452.00;5012976;28;20026;-77
2021/08/02 07:05:37;;;;;;;0.22;0.22;;;;;;;37.97;26.76;98461.50;5014240;28;20033;-76
2021/08/02 07:08:02;;;;;;;2.83;0.50;;;;;;;37.76;27.23;98466.16;5014171;28;20026;-76
2021/08/02 07:10:28;;;;;;;0.88;0.88;;;;;;;37.56;27.83;98458.41;5012470;28;20030;-76
2021/08/02 07:12:53;;;;;;;0.20;0.20;;;;;;;37.39;28.28;98454.50;5012788;28;20463;-76
2021/08/02 07:15:19;;;;;;;0.17;0.17;;;;;;;37.16;28.02;98467.94;5013407;28;20461;-77
2021/08/02 07:17:44;;;;;;;0.50;0.50;;;;;;;36.83;28.09;98447.16;5012550;28;20025;-77
2021/08/02 07:20:10;;;;;;;0.35;0.35;;;;;;;36.70;28.95;98461.25;5013801;28;20022;-77
2021/08/02 07:22:36;;;;;;;0.57;0.57;;;;;;;36.58;29.62;98459.44;5012222;28;20057;-77
2021/08/02 07:25:01;;;;;;;0.28;0.28;;;;;;;36.47;30.24;98464.75;5012960;28;20038;-77
2021/08/02 07:27:27;;;;;;;0.32;0.32;;;;;;;36.33;30.03;98460.59;5011965;28;20477;-77
2021/08/02 07:29:52;;;;;;;0.32;0.32;;;;;;;36.27;29.78;98462.44;5012383;28;20068;-77
2021/08/02 07:32:18;;;;;;;0.55;0.55;;;;;;;36.14;29.92;98457.81;5012080;28;20056;-77
2021/08/02 07:34:44;;;;;;;0.38;0.38;;;;;;;36.01;30.58;98449.66;5012308;28;20030;-77
2021/08/02 07:37:09;;;;;;;0.57;0.57;;;;;;;35.85;30.84;98455.47;5013543;28;20036;-77
2021/08/02 07:39:35;;;;;;;0.32;0.32;;;;;;;35.79;30.06;98458.13;5013013;28;20504;-78
2021/08/02 07:42:00;;;;;;;0.10;0.10;;;;;;;35.71;30.93;98448.53;5011688;28;20030;-77
2021/08/02 07:44:26;;;;;;;0.40;0.40;;;;;;;35.64;30.62;98448.84;5011819;28;20084;-77
2021/08/02 07:46:51;;;;;;;0.10;0.10;;;;;;;35.63;30.20;98453.59;5013335;28;20075;-77
2021/08/02 07:49:17;;;;;;;0.60;0.60;;;;;;;35.62;30.74;98459.63;5013853;28;20383;-77
2021/08/02 07:51:42;;;;;;;0.70;0.70;;;;;;;35.49;30.11;98457.00;5011960;28;20100;-77
2021/08/02 07:54:09;;;;;;;3.13;1.48;;;;;;;35.50;30.60;98464.09;5011903;28;20034;-76
2021/08/02 07:56:34;;;;;;;0.93;0.90;;;;;;;35.49;29.76;98452.22;5012688;28;20493;-77
2021/08/02 07:59:00;;;;;;;0.40;0.40;;;;;;;35.44;29.45;98444.50;5012907;28;20095;-77
2021/08/02 08:01:25;;;;;;;0.50;0.50;;;;;;;35.48;29.53;98442.31;5011739;28;20401;-76
2021/08/02 08:03:51;;;;;;;0.47;0.47;;;;;;;35.47;29.78;98445.56;5013078;28;20386;-76
2021/08/02 08:06:16;;;;;;;0.65;0.65;;;;;;;35.58;29.18;98441.13;5011853;28;20033;-76
2021/08/02 08:08:42;;;;;;;0.10;0.10;;;;;;;35.66;28.84;98438.78;5012712;28;20034;-77
2021/08/02 08:11:10;;;;;;;0.63;0.47;;;;;;;35.72;29.15;98438.97;5011701;28;20022;-76
2021/08/02 08:13:36;;;;;;;0.43;0.43;;;;;;;35.76;29.28;98439.56;5011106;28;20125;-76
2021/08/02 08:16:02;;;;;;;0.43;0.43;;;;;;;35.82;29.50;98442.50;5012548;28;20044;-78
2021/08/02 08:18:29;;;;;;;0.57;0.57;;;;;;;35.88;29.66;98435.09;5011255;28;20560;-76
2021/08/02 08:20:54;;;;;;;;;;;;;;;36.02;29.21;98436.50;5013152;28;20080;-77
2021/08/02 08:23:20;;;;;;;0.10;0.10;;;;;;;36.10;28.59;98428.63;5012149;28;19913;-77
2021/08/02 08:25:45;;;;;;;0.10;0.10;;;;;;;36.19;28.91;98434.94;5012451;28;20489;-76
2021/08/02 08:28:11;;;;;;;0.22;0.22;;;;;;;36.28;28.87;98422.22;5012436;28;20461;-76
2021/08/02 08:30:37;;;;;;;0.00;0.00;;;;;;;36.35;28.33;98425.47;5012187;28;20029;-78
2021/08/02 08:33:02;;;;;;;0.20;0.20;;;;;;;36.31;28.18;98422.06;5011076;28;20476;-77
2021/08/02 08:35:28;;;;;;;0.20;0.20;;;;;;;36.31;28.02;98424.09;5011846;28;20038;-76
2021/08/02 08:37:53;;;;;;;0.55;0.55;;;;;;;36.36;28.28;98418.63;5011019;28;20025;-77
2021/08/02 08:40:19;;;;;;;0.05;0.05;;;;;;;36.44;28.26;98416.34;5012378;28;20108;-77
2021/08/02 08:42:47;;;;;;;0.10;0.10;;;;;;;36.50;27.51;98414.47;5012315;28;20033;-77
2021/08/02 08:45:12;;;;;;;0.00;0.00;;;;;;;36.56;26.61;98422.19;5012258;28;20084;-77
2021/08/02 08:47:38;;;;;;;0.10;0.10;;;;;;;36.59;26.52;98415.69;5012154;28;20462;-76
2021/08/02 08:50:06;;;;;;;0.40;0.40;;;;;;;36.65;26.44;98411.00;5010800;28;20080;-76
2021/08/02 08:52:34;;;;;;;0.10;0.10;;;;;;;36.69;27.05;98409.59;5011205;28;20057;-76
2021/08/02 08:54:59;;;;;;;0.03;0.03;;;;;;;36.79;25.80;98406.75;5012045;28;20022;-76
2021/08/02 08:57:25;;;;;;;0.10;0.10;;;;;;;36.86;26.10;98409.22;5011808;28;20036;-77
2021/08/02 08:59:52;;;;;;;0.00;0.00;;;;;;;36.95;25.70;98398.06;5010612;28;20024;-76
2021/08/02 09:02:29;;;;;;;0.00;0.00;;;;;;;37.00;25.58;98410.56;5011868;28;20026;-76
2021/08/02 09:04:56;;;;;;;0.10;0.10;;;;;;;36.98;25.86;98399.13;5011949;28;20029;-76
2021/08/02 09:07:40;;;;;;;0.13;0.13;;;;;;;36.94;25.72;98402.06;5011956;28;20029;-76
2021/08/02 09:10:14;;;;;;;0.20;0.20;;;;;;;36.97;25.42;98397.56;5010417;28;20120;-77
2021/08/02 09:12:51;;;;;;;0.13;0.13;;;;;;;37.00;25.75;98396.63;5011752;28;20022;-77
2021/08/02 09:15:17;;;;;;;0.75;0.28;;;;;;;36.96;26.45;98385.66;5010619;28;20033;-77
2021/08/02 09:17:42;;;;;;;1.60;0.35;;;;;;;36.93;25.72;98383.06;5011112;28;20535;-77
2021/08/02 09:20:22;;;;;;;0.38;0.38;;;;;;;36.89;25.54;98394.38;5011761;28;20034;-78
2021/08/02 09:22:49;;;;;;;0.08;0.08;;;;;;;36.79;25.02;98385.25;5011794;28;20076;-77
2021/08/02 09:25:20;;;;;;;0.50;0.50;;;;;;;36.74;25.77;98371.97;5010501;28;20050;-77
2021/08/02 09:27:45;;;;;;;0.22;0.22;;;;;;;36.65;25.65;98380.38;5010031;28;20033;-77
2021/08/02 09:30:22;;;;;;;0.45;0.45;;;;;;;36.60;25.68;98372.66;5010275;28;20091;-77
2021/08/02 09:33:03;;;;;;;0.10;0.10;;;;;;;36.59;25.25;98374.66;5011670;28;20022;-77
2021/08/02 09:35:28;;;;;;;0.20;0.20;;;;;;;36.59;25.78;98365.56;5010030;28;20042;-79
2021/08/02 09:38:02;;;;;;;0.52;0.52;;;;;;;36.63;25.88;98369.69;5010363;28;20117;-78
2021/08/02 09:40:37;;;;;;;0.20;0.20;;;;;;;36.65;25.43;98363.66;5011223;28;20057;-78
2021/08/02 09:43:02;;;;;;;0.52;0.22;;;;;;;36.64;25.16;98357.31;5011365;28;20026;-78
2021/08/02 09:45:46;;;;;;;0.10;0.10;;;;;;;36.71;25.74;98356.19;5011305;28;20088;-78
2021/08/02 09:48:17;;;;;;;1.92;0.70;;;;;;;36.73;24.81;98347.38;5010035;28;20460;-78
2021/08/02 09:50:44;;;;;;;0.30;0.30;;;;;;;36.80;25.39;98347.78;5009825;28;20057;-78
2021/08/02 09:53:19;;;;;;;;;;;;;;;36.85;24.88;98361.09;5010625;28;20030;-78
2021/08/02 09:55:46;;;;;;;0.63;0.28;;;;;;;36.89;25.23;98346.22;5011713;28;19909;-77
2021/08/02 09:58:14;;;;;;;;;;;;;;;36.97;24.46;98350.97;5011958;28;20033;-78
2021/08/02 10:00:40;;;;;;;0.77;0.77;;;;;;;37.00;24.48;98346.47;5011118;28;19916;-78
2021/08/02 10:03:06;;;;;;;0.10;0.10;;;;;;;37.07;24.25;98336.97;5009956;28;20034;-78
2021/08/02 10:05:31;;;;;;;0.10;0.10;;;;;;;37.10;23.96;98336.81;5013951;28;20080;-77
2021/08/02 10:07:57;;;;;;;0.28;0.28;;;;;;;37.17;24.08;98330.88;5015197;28;20031;-75
2021/08/02 10:10:23;;;;;;;0.50;0.50;;;;;;;37.24;23.31;98337.31;5014772;28;20041;-76
2021/08/02 10:12:49;;;;;;;0.00;0.00;;;;;;;37.31;23.48;98334.16;5013502;28;20026;-76
2021/08/02 10:15:18;;;;;;;0.60;0.52;;;;;;;37.35;22.68;98342.34;5013749;28;20521;-77
2021/08/02 10:17:51;;;;;;;0.38;0.38;;;;;;;37.38;22.51;98333.03;5014703;28;20038;-77
2021/08/02 10:20:28;;;;;;;0.15;0.15;;;;;;;37.40;22.39;98331.31;5013675;28;20125;-77
2021/08/02 10:22:55;;;;;;;0.10;0.10;;;;;;;37.46;21.85;98323.84;5014898;28;20041;-76
2021/08/02 10:25:50;;;;;;;0.20;0.20;;;;;;;37.53;21.40;98327.53;5014590;28;20045;-76
2021/08/02 10:28:18;;;;;;;0.55;0.52;;;;;;;37.60;21.59;98321.56;5004411;28;20065;-76
2021/08/02 10:30:48;;;;;;;0.00;0.00;;;;;;;37.72;21.24;98319.72;5014855;28;20482;-76
2021/08/02 10:33:15;;;;;;;0.03;0.03;;;;;;;37.79;21.01;98317.34;5014663;28;20030;-76
2021/08/02 10:35:43;;;;;;;0.08;0.08;;;;;;;37.92;21.65;98316.31;5014414;28;20108;-76
2021/08/02 10:38:19;;;;;;;0.20;0.20;;;;;;;37.99;20.83;98320.72;5014582;28;20114;-77
2021/08/02 10:40:59;;;;;;;0.30;0.30;;;;;;;37.99;20.35;98304.75;5012982;28;20381;-77
2021/08/02 10:43:32;;;;;;;0.13;0.13;;;;;;;37.96;20.39;98311.28;5014599;28;20022;-77
2021/08/02 10:45:58;;;;;;;0.82;0.82;;;;;;;37.93;20.82;98307.44;5013270;28;20036;-77
2021/08/02 10:48:29;;;;;;;0.65;0.50;;;;;;;37.95;20.84;98296.59;5013101;28;20116;-77
2021/08/02 10:50:56;;;;;;;1.20;1.10;;;;;;;37.98;20.20;98297.63;5014551;28;20040;-77
2021/08/02 10:53:22;;;;;;;0.88;0.88;;;;;;;38.04;19.73;98303.28;5014756;28;20149;-77
2021/08/02 10:55:53;;;;;;;0.60;0.60;;;;;;;38.07;19.97;98291.94;5014122;28;20508;-77
2021/08/02 10:58:29;;;;;;;0.40;0.40;;;;;;;38.19;19.96;98278.91;5014559;28;20033;-77
2021/08/02 11:00:57;;;;;;;1.35;0.80;;;;;;;38.30;19.41;98288.75;5012976;28;20034;-77
2021/08/02 11:03:40;;;;;;;0.35;0.35;;;;;;;38.37;18.98;98282.78;5013948;28;20091;-76
2021/08/02 11:06:06;;;;;;;0.28;0.28;;;;;;;38.42;18.90;98280.03;5014242;28;20038;-77
2021/08/02 11:08:35;;;;;;;0.00;0.00;;;;;;;38.50;18.52;98274.84;5012722;28;20125;-76
2021/08/02 11:11:04;;;;;;;0.30;0.30;;;;;;;38.51;18.40;98276.34;5012642;28;20037;-77
2021/08/02 11:13:29;;;;;;;0.10;0.10;;;;;;;38.53;18.88;98270.31;5014182;28;20033;-78
2021/08/02 11:15:55;;;;;;;0.20;0.20;;;;;;;38.57;18.50;98268.81;5011720;28;20028;-77
2021/08/02 11:18:28;;;;;;;0.60;0.30;;;;;;;38.61;18.50;98263.03;5013978;28;20393;-76
2021/08/02 11:20:55;;;;;;;0.00;0.00;;;;;;;38.65;19.41;98246.84;5013784;28;20033;-76
2021/08/02 11:23:34;;;;;;;0.17;0.17;;;;;;;38.74;18.84;98249.47;5013700;28;20473;-76
2021/08/02 11:26:10;;;;;;;0.10;0.10;;;;;;;38.78;17.80;98254.88;5012021;28;20403;-77
2021/08/02 11:28:46;;;;;;;0.52;0.52;;;;;;;38.80;17.58;98248.81;5013295;28;20030;-77
2021/08/02 11:31:13;;;;;;;0.30;0.30;;;;;;;38.84;17.80;98243.78;5013566;28;20029;-76
2021/08/02 11:33:41;;;;;;;;;;;;;;;38.89;17.38;98241.06;5012500;28;20120;-77
2021/08/02 11:36:17;;;;;;;1.35;1.20;;;;;;;38.95;18.02;98240.34;5012238;28;19936;-76
2021/08/02 11:38:43;;;;;;;0.00;0.00;;;;;;;38.99;17.52;98241.69;5012107;28;20414;-77